Time;durP1;ratioP1;P1;durP2;ratioP2;P2;SDS_P1;SDS_P2;PMS_P1;PMS_P2;Temp;Humidity;BMP_temperature;BMP_pressure;BME280_temperature;BME280_humidity;BME280_pressure;Samples;Min_cycle;Max_cycle;Signal;HPM_P1;HPM_P2
2022/10/21 00:01:46;;;;;;;;;4.00;4.00;;;;;16.22;100.00;99955.06;4841441;29;44835;-81
2022/10/21 00:04:11;;;;;;;;;3.00;3.00;;;;;16.23;100.00;99964.88;4841224;29;46035;-82
2022/10/21 00:06:40;;;;;;;;;3.25;3.25;;;;;16.22;100.00;99973.84;4823109;29;45501;-82
2022/10/21 00:09:05;;;;;;;;;2.00;2.00;;;;;16.20;100.00;99966.72;4823008;29;45727;-83
2022/10/21 00:11:30;;;;;;;;;3.75;3.75;;;;;16.20;100.00;99968.53;4839414;29;45583;-82
2022/10/21 00:13:56;;;;;;;;;3.50;3.50;;;;;16.15;100.00;99955.19;4823029;29;47221;-82
2022/10/21 00:16:21;;;;;;;;;4.00;4.00;;;;;16.15;100.00;99944.47;4823223;29;45683;-82
2022/10/21 00:18:48;;;;;;;;;3.33;3.33;;;;;16.19;100.00;99951.53;4824730;29;45384;-82
2022/10/21 00:21:16;;;;;;;;;3.00;3.00;;;;;16.20;100.00;99952.44;4840348;29;45369;-82
2022/10/21 00:23:43;;;;;;;;;3.00;3.00;;;;;16.18;100.00;99943.53;4840397;29;47251;-82
2022/10/21 00:26:10;;;;;;;;;4.33;3.00;;;;;16.17;100.00;99933.69;4824086;29;45433;-82
2022/10/21 00:28:37;;;;;;;;;0.50;0.00;;;;;16.15;100.00;99941.78;4825747;29;45122;-82
2022/10/21 00:31:08;;;;;;;;;2.75;2.75;;;;;16.17;100.00;99936.38;4825881;29;45631;-82
2022/10/21 00:33:34;;;;;;;;;4.00;4.00;;;;;16.16;100.00;99940.88;4824966;29;47619;-83
2022/10/21 00:36:05;;;;;;;;;4.00;4.00;;;;;16.14;100.00;99934.66;4824074;29;45371;-83
2022/10/21 00:38:33;;;;;;;;;4.00;2.75;;;;;16.15;100.00;99932.84;4823528;29;45629;-83
2022/10/21 00:40:59;;;;;;;;;3.75;2.00;;;;;16.14;100.00;99931.09;4824509;29;44965;-83
2022/10/21 00:43:25;;;;;;;;;3.00;3.00;;;;;16.13;100.00;99935.56;4832832;29;46884;-83
2022/10/21 00:46:03;;;;;;;;;2.75;2.25;;;;;16.12;100.00;99923.09;4841040;29;44882;-83
2022/10/21 00:48:41;;;;;;;;;3.00;3.00;;;;;16.09;100.00;99923.13;4841549;29;45344;-82
2022/10/21 00:51:11;;;;;;;;;5.00;3.50;;;;;16.08;100.00;99916.03;4825184;29;45457;-83
2022/10/21 00:53:41;;;;;;;;;4.00;4.00;;;;;16.05;100.00;99909.84;4840947;29;48211;-83
2022/10/21 00:56:11;;;;;;;;;3.00;3.00;;;;;16.07;100.00;99908.00;4841180;29;45286;-83
2022/10/21 00:58:37;;;;;;;;;3.75;3.00;;;;;16.01;100.00;99903.66;4821582;29;45481;-83
2022/10/21 01:01:06;;;;;;;;;4.25;3.75;;;;;15.93;100.00;99887.72;4832238;29;44918;-83
2022/10/21 01:03:34;;;;;;;;;4.00;4.00;;;;;16.01;100.00;99903.66;4824556;29;45324;-83
2022/10/21 01:06:04;;;;;;;;;4.25;4.25;;;;;16.02;100.00;99892.03;4822342;29;45395;-84
2022/10/21 01:08:30;;;;;;;;;3.50;3.50;;;;;16.02;100.00;99883.97;4837824;29;44908;-84
2022/10/21 01:10:56;;;;;;;;;3.75;3.75;;;;;16.01;100.00;99866.09;4839672;29;44850;-84
2022/10/21 01:14:00;;;;;;;;;4.00;4.00;;;;;16.06;100.00;99874.94;4821740;29;47235;-84
2022/10/21 01:17:01;;;;;;;;;2.25;2.25;;;;;16.08;100.00;99867.75;4839171;29;45403;-83
2022/10/21 01:20:07;;;;;;;;;3.25;3.00;;;;;16.08;100.00;99857.00;4816106;29;45465;-84
2022/10/21 01:23:06;;;;;;;;;2.00;2.00;;;;;16.10;100.00;99863.22;4822811;29;45391;-83
2022/10/21 01:25:40;;;;;;;;;5.50;3.00;;;;;16.11;100.00;99867.66;4840775;29;45094;-84
2022/10/21 01:29:02;;;;;;;;;3.75;3.75;;;;;16.13;100.00;99860.44;4840119;29;45333;-84
2022/10/21 01:32:11;;;;;;;;;3.00;3.00;;;;;16.16;100.00;99860.41;4799298;29;45479;-84
2022/10/21 01:34:46;;;;;;;;;3.25;3.25;;;;;16.14;100.00;99859.56;4816042;29;45439;-83
2022/10/21 01:37:18;;;;;;;;;4.00;4.00;;;;;16.22;100.00;99869.22;4805590;29;47813;-84
2022/10/21 01:43:14;;;;;;;;;2.50;2.50;;;;;16.28;100.00;99877.09;4820161;29;44785;-83
2022/10/21 01:45:51;;;;;;;;;4.75;3.75;;;;;16.28;100.00;99880.69;4806443;29;45596;-84
2022/10/21 01:48:24;;;;;;;;;4.25;3.25;;;;;16.32;100.00;99885.06;4806248;29;47063;-84
2022/10/21 01:50:55;;;;;;;;;3.75;3.75;;;;;16.32;100.00;99881.50;4804243;29;45676;-83
2022/10/21 01:53:26;;;;;;;;;3.75;3.75;;;;;16.39;100.00;99891.19;4804282;29;45480;-84
2022/10/21 01:55:54;;;;;;;;;2.00;2.00;;;;;16.43;100.00;99905.41;4819621;29;45448;-83
2022/10/21 01:58:28;;;;;;;;;3.00;3.00;;;;;16.45;100.00;99944.72;4820158;29;45690;-84
2022/10/21 02:00:57;;;;;;;;;6.00;6.00;;;;;16.50;100.00;99953.56;4820818;29;44701;-83
2022/10/21 02:03:31;;;;;;;;;3.50;3.50;;;;;16.57;100.00;99960.53;4844945;29;44955;-84
2022/10/21 02:05:58;;;;;;;;;6.00;4.75;;;;;16.68;100.00;99980.88;4842163;29;45935;-84
2022/10/21 02:08:23;;;;;;;;;4.00;3.00;;;;;16.71;100.00;99988.88;4822425;29;46876;-84
2022/10/21 02:10:53;;;;;;;;;7.00;5.00;;;;;16.75;100.00;99971.75;4827573;29;45845;-84
2022/10/21 02:13:29;;;;;;;;;7.67;6.00;;;;;16.83;100.00;99980.56;4826706;29;44811;-84
2022/10/21 02:15:59;;;;;;;;;5.00;5.00;;;;;16.87;100.00;99976.88;4829350;29;44789;-83
2022/10/21 02:19:02;;;;;;;;;3.50;3.50;;;;;16.90;100.00;99963.34;4811704;29;47573;-83
2022/10/21 02:21:33;;;;;;;;;5.00;5.00;;;;;16.92;100.00;99948.09;4841842;29;45830;-84
2022/10/21 02:24:28;;;;;;;;;4.00;4.00;;;;;16.96;100.00;99935.47;4826588;29;45363;-84
2022/10/21 02:26:54;;;;;;;;;5.25;5.25;;;;;16.89;100.00;99932.06;4840674;29;45382;-83
2022/10/21 02:29:25;;;;;;;;;6.00;4.50;;;;;16.90;100.00;99896.22;4825309;29;47510;-83
2022/10/21 02:32:34;;;;;;;;;5.25;4.00;;;;;16.92;100.00;99875.56;4840836;29;44838;-83
2022/10/21 02:35:06;;;;;;;;;5.75;4.00;;;;;16.93;100.00;99826.31;4842348;29;45431;-84
2022/10/21 02:37:54;;;;;;;;;3.50;3.00;;;;;16.91;100.00;99848.78;4826645;29;44855;-83
2022/10/21 02:40:31;;;;;;;;;4.25;4.25;;;;;16.93;100.00;99849.63;4825771;29;46999;-84
2022/10/21 02:43:03;;;;;;;;;5.50;3.50;;;;;16.93;100.00;99842.44;4840224;29;45617;-83
2022/10/21 02:45:32;;;;;;;;;5.67;4.00;;;;;16.94;100.00;99824.50;4827223;29;45345;-83
2022/10/21 02:47:57;;;;;;;;;6.67;5.00;;;;;16.85;100.00;99809.53;4824975;29;44944;-82
2022/10/21 02:50:23;;;;;;;;;5.00;5.00;;;;;16.87;100.00;99814.88;4814452;29;47065;-83
2022/10/21 02:52:48;;;;;;;;;4.00;3.67;;;;;16.85;100.00;99822.94;4807494;29;45481;-84
2022/10/21 02:55:14;;;;;;;;;4.67;4.67;;;;;16.87;100.00;99815.75;4822410;29;45423;-82
2022/10/21 02:57:39;;;;;;;;;4.00;4.00;;;;;16.87;100.00;99822.91;4806853;29;44803;-83
2022/10/21 03:00:05;;;;;;;;;4.25;4.25;;;;;16.89;100.00;99813.88;4808056;29;46657;-84
2022/10/21 03:02:31;;;;;;;;;4.25;4.25;;;;;16.82;100.00;99814.97;4808667;29;45449;-84
2022/10/21 03:04:57;;;;;;;;;6.00;6.00;;;;;16.76;100.00;99809.72;4824429;29;45412;-83
2022/10/21 03:07:22;;;;;;;;;4.00;4.00;;;;;16.79;100.00;99831.13;4807329;29;44970;-83
2022/10/21 03:09:47;;;;;;;;;6.00;6.00;;;;;16.78;100.00;99837.41;4818379;29;46494;-84
2022/10/21 03:12:13;;;;;;;;;4.25;4.25;;;;;16.77;100.00;99857.16;4812159;29;44741;-83
2022/10/21 03:14:38;;;;;;;;;5.00;5.00;;;;;16.76;100.00;99871.47;4841861;29;45287;-83
2022/10/21 03:17:04;;;;;;;;;6.00;5.00;;;;;16.73;100.00;99876.94;4825836;29;45471;-84
2022/10/21 03:19:29;;;;;;;;;4.00;3.50;;;;;16.72;100.00;99867.97;4840217;29;47409;-84
2022/10/21 03:21:56;;;;;;;;;6.50;5.50;;;;;16.74;100.00;99871.53;4840339;29;44756;-84
2022/10/21 03:24:22;;;;;;;;;5.25;5.25;;;;;16.70;100.00;99871.63;4829891;29;45632;-84
2022/10/21 03:26:47;;;;;;;;;5.00;5.00;;;;;16.67;100.00;99866.34;4824946;29;45469;-84
2022/10/21 03:29:13;;;;;;;;;4.00;4.00;;;;;16.70;100.00;99877.00;4824361;29;44999;-83
2022/10/21 03:31:38;;;;;;;;;6.50;5.00;;;;;16.68;100.00;99876.16;4825555;29;44771;-84
2022/10/21 03:34:05;;;;;;;;;6.50;6.50;;;;;16.64;100.00;99867.28;4816926;29;45415;-83
2022/10/21 03:36:30;;;;;;;;;4.00;3.50;;;;;16.66;100.00;99880.69;4812282;29;45246;-84
2022/10/21 03:38:56;;;;;;;;;5.33;5.33;;;;;16.62;100.00;99868.25;4808420;29;47933;-83
2022/10/21 03:41:21;;;;;;;;;4.25;4.00;;;;;16.59;100.00;99864.72;4829418;29;44717;-84
2022/10/21 03:43:47;;;;;;;;;5.00;5.00;;;;;16.62;100.00;99873.63;4841430;29;45421;-84
2022/10/21 03:49:34;;;;;;;;;5.00;4.67;;;;;16.62;100.00;99882.56;4843309;29;45827;-84
2022/10/21 03:52:00;;;;;;;;;5.00;5.00;;;;;16.61;100.00;99880.81;4838072;29;45440;-84
2022/10/21 03:54:25;;;;;;;;;3.00;3.00;;;;;16.62;100.00;99889.75;4826252;29;45459;-84
2022/10/21 03:56:51;;;;;;;;;7.00;6.33;;;;;16.58;100.00;99880.88;4842716;29;44801;-84
2022/10/21 03:59:16;;;;;;;;;11.00;9.67;;;;;16.60;100.00;99893.34;4826851;29;46607;-84
2022/10/21 04:01:42;;;;;;;;;7.33;7.33;;;;;16.55;100.00;99889.88;4824258;29;45367;-84
2022/10/21 04:04:08;;;;;;;;;5.50;5.50;;;;;16.60;100.00;99897.81;4823591;29;45386;-84
2022/10/21 04:10:03;;;;;;;;;9.00;7.00;;;;;16.57;100.00;99901.47;4821988;29;45531;-84
2022/10/21 04:12:28;;;;;;;;;3.00;1.25;;;;;16.54;100.00;99885.44;4821871;29;45284;-83
2022/10/21 04:14:54;;;;;;;;;5.50;5.50;;;;;16.56;100.00;99890.75;4831932;29;45021;-83
2022/10/21 04:17:19;;;;;;;;;6.00;5.00;;;;;16.50;100.00;99883.75;4823871;29;44839;-83
2022/10/21 04:19:44;;;;;;;;;6.00;5.50;;;;;16.54;100.00;99885.44;4817671;29;47226;-83
2022/10/21 04:22:10;;;;;;;;;6.00;6.00;;;;;16.51;100.00;99881.97;4819689;29;45562;-83
2022/10/21 04:24:35;;;;;;;;;7.50;7.00;;;;;16.54;100.00;99885.44;4821710;29;45482;-84
2022/10/21 04:27:01;;;;;;;;;8.25;8.25;;;;;16.52;100.00;99889.06;4805171;29;45517;-84
2022/10/21 04:29:26;;;;;;;;;6.25;6.00;;;;;16.50;100.00;99886.44;4820685;29;45328;-82
2022/10/21 04:35:14;;;;;;;;;6.00;6.00;;;;;16.48;100.00;99890.97;4823174;29;45327;-83
2022/10/21 04:37:39;;;;;;;;;5.25;5.25;;;;;16.47;100.00;99886.50;4817186;29;45404;-82
2022/10/21 04:40:07;;;;;;;;;4.00;3.50;;;;;16.52;100.00;99879.25;4841537;29;45165;-83
2022/10/21 04:42:32;;;;;;;;;5.50;5.50;;;;;16.54;100.00;99890.81;4841541;29;45220;-84
2022/10/21 04:45:04;;;;;;;;;8.50;7.75;;;;;16.54;100.00;99893.50;4839762;29;45460;-84
2022/10/21 04:47:30;;;;;;;;;5.25;5.25;;;;;16.53;100.00;99886.34;4832515;29;44799;-85
2022/10/21 04:49:55;;;;;;;;;5.50;5.00;;;;;16.51;100.00;99888.19;4814243;29;47227;-83
2022/10/21 04:52:21;;;;;;;;;10.25;6.25;;;;;16.53;100.00;99885.47;4825713;29;44829;-84
2022/10/21 04:54:46;;;;;;;;;7.75;7.75;;;;;16.53;100.00;99889.03;4825182;29;44960;-83
2022/10/21 04:57:13;;;;;;;;;9.50;8.25;;;;;16.54;100.00;99889.91;4830157;29;45595;-83
2022/10/21 04:59:38;;;;;;;;;7.33;7.33;;;;;16.56;100.00;99890.75;4831549;29;46277;-84
2022/10/21 05:02:04;;;;;;;;;7.00;7.00;;;;;16.59;100.00;99885.34;4806684;29;45369;-84
2022/10/21 05:04:29;;;;;;;;;8.00;8.00;;;;;16.54;100.00;99874.72;4807396;29;45433;-85
2022/10/21 05:06:54;;;;;;;;;9.00;7.00;;;;;16.58;100.00;99888.91;4812164;29;44798;-84
2022/10/21 05:09:20;;;;;;;;;6.75;6.75;;;;;16.57;100.00;99887.16;4806913;29;47167;-83
2022/10/21 05:11:45;;;;;;;;;6.75;6.75;;;;;16.61;100.00;99888.88;4806908;29;44898;-84
2022/10/21 05:14:10;;;;;;;;;8.75;7.50;;;;;16.61;100.00;99899.59;4822460;29;45025;-84
2022/10/21 05:16:36;;;;;;;;;13.00;10.00;;;;;16.65;100.00;99900.41;4807953;29;44956;-82
2022/10/21 05:19:02;;;;;;;;;8.75;6.75;;;;;16.65;100.00;99905.78;4821889;29;46983;-83
2022/10/21 05:21:28;;;;;;;;;6.00;6.00;;;;;16.70;100.00;99911.91;4817477;29;45514;-82
2022/10/21 05:23:53;;;;;;;;;7.00;7.00;;;;;16.70;100.00;99909.22;4822614;29;45405;-83
2022/10/21 05:26:19;;;;;;;;;7.00;7.00;;;;;16.76;100.00;99919.81;4820519;29;45478;-83
2022/10/21 05:28:44;;;;;;;;;5.50;5.50;;;;;16.76;100.00;99922.50;4818853;29;46591;-83
2022/10/21 05:31:09;;;;;;;;;6.00;6.00;;;;;16.69;100.00;99911.03;4828932;29;44875;-83
2022/10/21 05:33:35;;;;;;;;;5.25;5.00;;;;;16.77;100.00;99911.72;4808601;29;45424;-83
2022/10/21 05:36:06;;;;;;;;;8.25;7.50;;;;;16.79;100.00;99919.75;4821209;29;45488;-83
2022/10/21 05:38:32;;;;;;;;;11.33;8.33;;;;;16.79;100.00;99927.81;4809284;29;47123;-83
2022/10/21 05:40:58;;;;;;;;;6.00;6.00;;;;;16.80;100.00;99921.50;4819524;29;45572;-83
2022/10/21 05:43:26;;;;;;;;;7.50;6.00;;;;;16.84;100.00;99920.53;4803935;29;45455;-84
2022/10/21 05:45:52;;;;;;;;;8.50;8.00;;;;;16.85;100.00;99914.25;4820910;29;45369;-83
2022/10/21 05:48:17;;;;;;;;;7.75;7.75;;;;;16.83;100.00;99916.09;4822339;29;45375;-83
2022/10/21 05:50:44;;;;;;;;;6.50;6.50;;;;;16.87;100.00;99917.78;4838555;29;45420;-82
2022/10/21 05:53:10;;;;;;;;;6.50;6.25;;;;;16.88;100.00;99914.16;4839139;29;45595;-83
2022/10/21 05:58:57;;;;;;;;;7.75;6.50;;;;;17.05;100.00;99937.94;4840744;29;45647;-82
2022/10/21 06:01:23;;;;;;;;;7.33;6.00;;;;;17.05;100.00;99934.34;4838946;29;45414;-83
2022/10/21 06:03:48;;;;;;;;;10.33;8.33;;;;;17.05;100.00;99940.63;4837914;29;45328;-82
2022/10/21 06:06:14;;;;;;;;;5.00;5.00;;;;;17.06;100.00;99944.19;4838154;29;45492;-82
2022/10/21 06:08:39;;;;;;;;;6.00;6.00;;;;;17.09;100.00;99955.75;4838005;29;46918;-82
2022/10/21 06:11:10;;;;;;;;;6.00;5.00;;;;;17.10;100.00;99956.63;4837804;29;45439;-82
2022/10/21 06:13:36;;;;;;;;;5.00;4.25;;;;;17.09;100.00;99969.19;4824917;29;45553;-82
2022/10/21 06:16:02;;;;;;;;;4.00;3.75;;;;;17.11;100.00;99990.63;4830785;29;45528;-82
2022/10/21 06:18:28;;;;;;;;;7.00;5.75;;;;;17.15;100.00;100003.94;4836804;29;45530;-82
2022/10/21 06:21:15;;;;;;;;;5.75;5.75;;;;;17.14;100.00;99995.91;4820527;29;45174;-82
2022/10/21 06:23:41;;;;;;;;;5.00;3.25;;;;;17.11;100.00;99986.13;4841026;29;44723;-81
2022/10/21 06:26:11;;;;;;;;;2.00;2.00;;;;;17.14;100.00;99987.84;4839470;29;44775;-81
2022/10/21 06:28:41;;;;;;;;;3.50;3.50;;;;;17.15;100.00;99995.00;4839454;29;45437;-81
2022/10/21 06:31:08;;;;;;;;;3.00;3.00;;;;;17.18;100.00;100003.84;4837665;29;45491;-82
2022/10/21 06:36:57;;;;;;;;;4.00;4.00;;;;;17.16;100.00;99997.63;4855239;29;44872;-83
2022/10/21 06:39:22;;;;;;;;;4.50;3.75;;;;;17.16;100.00;99994.06;4855121;29;46372;-84
2022/10/21 06:41:47;;;;;;;;;5.50;2.50;;;;;17.14;100.00;99985.16;4850708;29;45411;-84
2022/10/21 06:44:13;;;;;;;;;3.50;3.50;;;;;17.08;100.00;99974.56;4837231;29;45813;-82
2022/10/21 06:46:39;;;;;;;;;4.50;3.00;;;;;17.05;100.00;99988.97;4835798;29;45422;-81
2022/10/21 06:49:05;;;;;;;;;4.00;4.00;;;;;16.99;100.00;100003.44;4839436;29;47257;-81
2022/10/21 06:51:30;;;;;;;;;5.50;5.00;;;;;16.97;100.00;100025.88;4856304;29;45821;-83
2022/10/21 06:53:58;;;;;;;;;4.75;4.75;;;;;16.93;100.00;100033.13;4837276;29;44865;-83
2022/10/21 06:56:25;;;;;;;;;4.50;4.00;;;;;16.92;100.00;100041.22;4858436;29;45694;-83
2022/10/21 06:59:09;;;;;;;;;6.00;5.50;;;;;16.91;100.00;100021.53;4841208;29;46666;-82
2022/10/21 07:01:35;;;;;;;;;4.00;4.00;;;;;16.81;100.00;100006.56;4851887;29;45389;-82
2022/10/21 07:04:02;;;;;;;;;5.25;3.75;;;;;16.84;100.00;100036.00;4840558;29;44814;-81
2022/10/21 07:06:28;;;;;;;;;4.50;4.50;;;;;16.81;100.00;100036.09;4840145;29;45544;-82
2022/10/21 07:08:54;;;;;;;;;3.50;3.50;;;;;16.79;100.00;100028.03;4823272;29;47002;-83
2022/10/21 07:11:20;;;;;;;;;5.50;5.50;;;;;16.84;100.00;100032.44;4856287;29;45538;-82
2022/10/21 07:13:46;;;;;;;;;5.00;5.00;;;;;16.80;100.00;100023.53;4826988;29;44911;-83
2022/10/21 07:16:26;;;;;;;;;6.75;6.75;;;;;16.77;100.00;100008.41;4842684;29;44785;-85
2022/10/21 07:18:54;;;;;;;;;3.25;3.25;;;;;16.80;100.00;100035.19;4824691;29;46810;-82
2022/10/21 07:21:22;;;;;;;;;3.50;3.50;;;;;16.84;100.00;100056.63;4845876;29;45411;-84
2022/10/21 07:23:55;;;;;;;;;5.50;4.50;;;;;16.90;100.00;100062.72;4847246;29;45425;-85
2022/10/21 07:29:00;;;;;;;;;3.00;3.00;;;;;16.78;100.00;100036.13;4914753;23;45139;-85
2022/10/21 07:31:29;;;;;;;;;3.25;3.25;;;;;16.99;100.00;100067.03;4864969;29;44888;-85
2022/10/21 07:33:55;;;;;;;;;3.25;3.25;;;;;16.90;100.00;100052.00;4881529;29;45290;-84
2022/10/21 07:36:24;;;;;;;;;5.50;3.50;;;;;16.88;100.00;100045.78;4863950;29;45733;-84
2022/10/21 07:38:51;;;;;;;;;4.00;3.75;;;;;16.87;100.00;100046.69;4879473;29;46895;-83
2022/10/21 07:41:23;;;;;;;;;5.00;5.00;;;;;16.94;100.00;100066.25;4883162;28;45387;-86
2022/10/21 07:44:04;;;;;;;;;6.00;4.50;;;;;16.92;100.00;100066.25;4889566;23;46127;-84
2022/10/21 07:46:31;;;;;;;;;5.50;4.00;;;;;16.81;100.00;100057.59;4846858;29;45460;-83
2022/10/21 07:48:57;;;;;;;;;6.00;5.00;;;;;16.80;100.00;100061.13;4846233;29;45189;-84
2022/10/21 07:51:24;;;;;;;;;4.00;4.00;;;;;16.69;100.00;100058.69;4864179;29;45345;-86
2022/10/21 07:53:53;;;;;;;;;4.50;4.50;;;;;16.74;100.00;100069.34;4864093;28;44785;-85
2022/10/21 07:56:32;;;;;;;;;4.00;4.00;;;;;16.72;100.00;100053.25;4862835;29;45686;-84
2022/10/21 07:58:58;;;;;;;;;5.75;4.00;;;;;16.93;100.00;100097.59;4863537;29;47346;-85
2022/10/21 08:01:24;;;;;;;;;4.00;4.00;;;;;16.96;100.00;100089.44;4865813;29;44820;-85
2022/10/21 08:03:53;;;;;;;;;4.25;4.25;;;;;16.81;100.00;100038.78;4871557;29;45348;-84
2022/10/21 08:06:29;;;;;;;;;4.00;4.00;;;;;17.06;100.00;100057.00;4840925;29;45467;-83
2022/10/21 08:08:57;;;;;;;;;6.50;5.00;;;;;17.17;100.00;100055.84;4836306;29;45396;-84
2022/10/21 08:11:35;;;;;;;;;5.75;5.75;;;;;17.38;100.00;100067.88;4831851;29;45498;-84
2022/10/21 08:14:06;;;;;;;;;4.25;4.00;;;;;17.56;100.00;100079.97;4794699;29;45060;-84
2022/10/21 08:16:56;;;;;;;;;5.50;5.00;;;;;17.51;100.00;100052.34;4844309;29;44816;-87
2022/10/21 08:19:29;;;;;;;;;5.00;5.00;;;;;17.79;100.00;100097.31;4841191;29;45432;-85
2022/10/21 08:22:15;;;;;;;;;5.00;5.00;;;;;17.78;100.00;100068.66;4815272;29;45066;-85
2022/10/21 08:25:28;;;;;;;;;3.75;3.75;;;;;17.93;100.00;100080.84;4809376;29;45444;-85
2022/10/21 08:28:43;;;;;;;;;;;;;;;;;;;;;
2022/10/21 08:34:19;;;;;;;;;5.50;3.50;;;;;18.15;100.00;100091.91;4826747;29;44874;-85
2022/10/21 08:40:52;;;;;;;;;;;;;;;;;;;;;
2022/10/21 08:43:51;;;;;;;;;;;;;;;;;;;;;
2022/10/21 08:57:44;;;;;;;;;9.00;6.50;;;;;18.52;100.00;100097.16;4822626;29;45408;-85
2022/10/21 09:15:08;;;;;;;;;2.75;2.75;;;;;18.73;100.00;100108.22;4725771;29;45403;-87
2022/10/21 09:28:43;;;;;;;;;5.50;5.50;;;;;18.54;100.00;100060.28;5010499;23;45730;-86
2022/10/21 09:31:23;;;;;;;;;8.25;8.25;;;;;18.79;100.00;100098.16;4831795;29;44896;-87
2022/10/21 09:34:32;;;;;;;;;3.25;2.75;;;;;18.79;100.00;100105.38;4848722;29;46765;-87
2022/10/21 09:37:39;;;;;;;;;5.50;5.50;;;;;18.84;100.00;100094.44;4807694;29;45394;-85
2022/10/21 09:40:16;;;;;;;;;4.75;4.75;;;;;18.93;100.00;100105.84;4801495;29;44855;-86
2022/10/21 09:42:44;;;;;;;;;5.50;5.50;;;;;18.85;100.00;100082.75;4793735;29;45626;-88
2022/10/21 09:45:37;;;;;;;;;4.50;4.25;;;;;19.08;100.00;100096.38;4807881;29;45142;-85
2022/10/21 09:49:29;;;;;;;;;;;;;;;;;;;;;
2022/10/21 09:51:48;;;;;;;;;4.25;2.25;;;;;19.11;100.00;100082.81;4783462;29;44737;-87
2022/10/21 09:54:34;;;;;;;;;6.00;6.00;;;;;19.35;100.00;100113.50;4792973;29;45398;-87
2022/10/21 09:57:12;;;;;;;;;5.00;5.00;;;;;19.44;100.00;100096.16;4807935;29;46867;-87
2022/10/21 09:59:57;;;;;;;;;7.50;4.00;;;;;19.43;100.00;100080.00;4817661;29;45361;-88
2022/10/21 10:02:57;;;;;;;;;4.75;4.25;;;;;19.70;100.00;100106.06;4807792;29;44994;-85
2022/10/21 10:05:49;;;;;;;;;6.75;4.25;;;;;19.76;100.00;100110.41;4810133;29;44813;-86
2022/10/21 10:11:24;;;;;;;;;4.25;4.25;;;;;19.93;100.00;100112.53;4863158;23;45313;-88
2022/10/21 10:14:18;;;;;;;;;3.75;3.75;;;;;19.90;100.00;100093.75;4874301;28;45425;-88
2022/10/21 10:16:52;;;;;;;;;5.25;5.25;;;;;19.88;100.00;100080.31;4846828;28;45647;-87
2022/10/21 10:19:48;;;;;;;;;8.00;7.00;;;;;20.05;100.00;100109.38;4845417;29;45441;-87
2022/10/21 10:22:20;;;;;;;;;8.00;6.00;;;;;20.16;100.00;100117.13;4863611;28;44729;-87
2022/10/21 10:24:47;;;;;;;;;6.00;4.75;;;;;20.26;100.00;100102.38;4861327;28;45232;-87
2022/10/21 10:27:19;;;;;;;;;5.50;4.00;;;;;20.36;100.00;100094.81;4858339;29;44995;-88
2022/10/21 10:29:52;;;;;;;;;5.00;5.00;;;;;20.55;100.00;100120.19;4850058;29;45477;-87
2022/10/21 10:32:18;;;;;;;;;5.00;5.00;;;;;20.55;100.00;100103.97;4858941;29;45445;-88
2022/10/21 10:34:54;;;;;;;;;9.00;6.00;;;;;20.46;100.00;100085.44;4843735;29;45423;-85
2022/10/21 10:37:23;;;;;;;;;5.00;4.00;;;;;20.38;100.00;100079.44;4862894;29;45512;-88
2022/10/21 10:40:04;;;;;;;;;3.75;3.75;;;;;20.45;100.00;100089.06;4884768;28;46925;-88
2022/10/21 10:45:28;;;;;;;;;6.50;5.00;;;;;20.29;100.00;100074.38;4854155;29;45498;-87
2022/10/21 10:47:57;;;;;;;;;7.50;6.25;;;;;20.41;100.00;100103.63;4809173;29;45471;-87
2022/10/21 10:50:56;;;;;;;;;2.00;2.00;;;;;20.48;100.00;100107.88;4828062;29;46882;-89
2022/10/21 10:54:00;;;;;;;;;4.75;4.75;;;;;20.52;100.00;100096.00;4825011;29;44846;-88
2022/10/21 10:56:43;;;;;;;;;5.00;3.75;;;;;20.39;100.00;100076.66;4745727;29;45392;-86
2022/10/21 10:59:40;;;;;;;;;4.25;4.25;;;;;20.51;100.00;100105.03;4756733;29;44874;-87
2022/10/21 11:08:53;;;;;;;;;4.00;4.00;;;;;20.64;100.00;100091.09;4775037;29;45466;-85
2022/10/21 11:11:39;;;;;;;;;7.25;6.25;;;;;20.69;100.00;100105.31;4757003;29;45076;-88
2022/10/21 11:14:22;;;;;;;;;5.25;5.00;;;;;20.47;100.00;100062.88;4758462;29;45484;-87
2022/10/21 11:17:08;;;;;;;;;5.00;5.00;;;;;20.55;100.00;100060.75;4754335;29;45488;-87
2022/10/21 11:23:16;;;;;;;;;3.00;1.25;;;;;20.92;100.00;100094.50;4762330;29;45445;-86
2022/10/21 11:25:50;;;;;;;;;7.00;6.00;;;;;20.80;100.00;100057.13;4762450;29;45526;-85
2022/10/21 11:29:03;;;;;;;;;4.00;4.00;;;;;21.09;100.00;100092.97;4794346;29;45311;-87
2022/10/21 11:31:33;;;;;;;;;4.25;4.25;;;;;21.18;100.00;100095.28;4754538;29;45586;-86
2022/10/21 11:34:11;;;;;;;;;4.00;2.25;;;;;21.25;100.00;100099.53;4755037;29;45416;-89
2022/10/21 11:37:01;;;;;;;;;3.25;3.00;;;;;21.28;100.00;100099.38;4767287;29;45675;-90
2022/10/21 11:39:29;;;;;;;;;4.60;3.60;;;;;21.34;100.00;100098.25;4769856;29;44791;-88
2022/10/21 11:42:20;;;;;;;;;3.25;3.25;;;;;21.26;100.00;100085.03;4770092;29;44844;-89
2022/10/21 11:45:17;;;;;;;;;3.50;3.50;;;;;21.44;100.00;100110.50;4765960;29;44946;-89
2022/10/21 11:48:06;;;;;;;;;3.00;2.50;;;;;21.55;100.00;100110.03;4768971;29;46846;-88
2022/10/21 11:50:34;;;;;;;;;3.00;3.00;;;;;21.58;100.00;100112.63;4734304;29;44770;-88
2022/10/21 11:53:26;;;;;;;;;3.75;3.75;;;;;21.63;100.00;100107.91;4716501;29;45469;-87
2022/10/21 11:56:03;;;;;;;;;3.75;3.00;;;;;21.68;100.00;100097.78;4721160;30;45389;-89
2022/10/21 11:58:32;;;;;;;;;5.75;4.00;;;;;21.75;100.00;100085.75;4730189;30;46784;-88
2022/10/21 12:01:16;;;;;;;;;3.50;3.50;;;;;21.83;100.00;100084.53;4716207;30;45454;-87
2022/10/21 12:04:19;;;;;;;;;3.00;2.00;;;;;21.95;100.00;100092.13;4728319;30;45340;-86
2022/10/21 12:06:53;;;;;;;;;2.00;2.00;;;;;22.01;100.00;100096.41;4706316;30;44991;-88
2022/10/21 12:09:32;;;;;;;;;2.25;2.25;;;;;21.90;100.00;100072.50;4753261;29;46992;-86
2022/10/21 12:12:29;;;;;;;;;3.00;2.00;;;;;22.12;100.00;100086.88;4754751;29;44870;-84
2022/10/21 12:15:01;;;;;;;;;3.80;1.00;;;;;22.01;92.96;100058.50;4758499;29;44894;-84
2022/10/21 12:17:32;;;;;;;;;6.50;6.50;;;;;22.13;98.71;100072.34;4744576;29;45499;-85
2022/10/21 12:20:06;;;;;;;;;3.00;3.00;;;;;22.22;100.00;100076.50;4775230;29;45509;-85
2022/10/21 12:22:33;;;;;;;;;3.25;3.25;;;;;22.21;100.00;100068.44;4790446;29;44908;-84
2022/10/21 12:25:21;;;;;;;;;4.00;2.00;;;;;22.30;100.00;100062.63;4775914;29;44816;-86
2022/10/21 12:28:08;;;;;;;;;2.00;2.00;;;;;22.31;100.00;100067.97;4817360;29;45563;-87
2022/10/21 12:34:01;;;;;;;;;1.00;1.00;;;;;22.09;95.22;100070.72;4842124;29;45433;-84
2022/10/21 12:36:52;;;;;;;;;3.60;1.80;;;;;22.04;94.18;100069.19;4829805;29;44844;-86
2022/10/21 12:39:33;;;;;;;;;4.25;3.00;;;;;22.03;94.99;100076.41;4819892;29;45447;-84
2022/10/21 12:42:27;;;;;;;;;3.75;3.75;;;;;22.03;98.45;100071.00;4831075;29;47027;-83
2022/10/21 12:44:53;;;;;;;;;3.00;2.00;;;;;22.02;99.09;100071.97;4836759;29;45253;-84
2022/10/21 12:47:31;;;;;;;;;1.50;1.00;;;;;22.06;98.56;100081.72;4839644;29;45280;-84
2022/10/21 12:50:14;;;;;;;;;2.00;2.00;;;;;22.10;96.08;100077.94;4840239;29;45497;-84
2022/10/21 12:53:34;;;;;;;;;2.00;2.00;;;;;22.14;97.89;100078.69;4822682;29;45719;-85
2022/10/21 12:56:00;;;;;;;;;2.50;2.25;;;;;22.23;99.88;100071.97;4852924;29;44804;-84
2022/10/21 12:58:35;;;;;;;;;3.50;3.50;;;;;22.34;98.61;100075.13;4813909;29;44826;-85
2022/10/21 13:01:01;;;;;;;;;3.00;2.00;;;;;22.37;96.00;100077.66;4835799;29;45458;-85
2022/10/21 13:03:50;;;;;;;;;3.00;1.00;;;;;22.39;97.90;100070.34;4829106;29;47301;-85
2022/10/21 13:06:36;;;;;;;;;4.00;2.20;;;;;22.47;99.04;100062.75;4835892;29;44894;-84
2022/10/21 13:09:01;;;;;;;;;1.80;1.80;;;;;22.63;99.72;100070.19;4838991;29;45442;-84
2022/10/21 13:11:33;;;;;;;;;3.00;2.50;;;;;22.71;96.54;100062.56;4816713;29;45415;-85
2022/10/21 13:14:17;;;;;;;;;3.75;1.00;;;;;22.70;96.65;100064.41;4839725;29;45307;-84
2022/10/21 13:17:38;;;;;;;;;2.80;1.80;;;;;22.62;92.94;100062.97;4838857;29;45528;-84
2022/10/21 13:20:17;;;;;;;;;2.00;2.00;;;;;22.51;95.50;100056.22;4821109;29;44825;-85
2022/10/21 13:22:56;;;;;;;;;2.00;2.00;;;;;22.48;95.95;100045.56;4828032;29;44844;-84
2022/10/21 13:25:34;;;;;;;;;2.00;2.00;;;;;22.57;95.17;100050.53;4843162;29;45390;-85